Veter Od: 21-10-2020 00:00 Do: 23:59 Opozorilo za: Veter Stopnja: Rumena info button
Legenda:
Majhna (0-210)
Zelo visoka (490 - 630)

Srednja (210 - 350)
Ekstremna (630+)

Visoka (350 - 490)


 
29.77
Date Temp. (°C) Wind Speed (km/h) Rain (mm) RH% Days Since Rain pwsFWI
Napovedi, vključno z današnjim dnem, so nad rdečo črto!
25/10/20 15,00 9,00 0,50 0,63 0 38,39
24/10/20 15,00 7,00 27,00 0,84 0 35,14
23/10/20 15,00 11,00 6,40 0,86 0 43,52
22/10/20 14,00 9,00 0,80 0,82 0 41,77
21/10/20 14,00 11,00 0,60 0,72 0 44,46
20/10/20 12,90 14,00 0,00 0,71 3 29,77
19/10/20 12,60 7,80 0,00 0,70 2 40,35
18/10/20 13,40 6,60 0,00 0,61 1 60,45
17/10/20 11,80 8,50 4,20 0,73 0 75,90
16/10/20 10,20 11,30 0,50 0,72 0 59,42
15/10/20 8,10 18,50 52,30 0,72 0 71,51
14/10/20 12,70 19,20 0,00 0,58 3 79,64
13/10/20 14,10 16,40 0,00 0,47 2 81,07
12/10/20 11,30 16,50 0,00 0,52 1 47,26
11/10/20 11,30 22,60 178,20 0,68 0 46,65
10/10/20 16,90 13,20 0,00 0,68 3 28,09
09/10/20 19,90 4,90 0,00 0,61 2 25,98
08/10/20 18,80 14,00 0,00 0,57 1 27,07
07/10/20 12,90 19,50 21,20 0,66 0 21,68
06/10/20 13,80 20,00 0,00 0,76 1 16,12
05/10/20 13,90 24,40 39,90 0,70 0 32,75
04/10/20 13,90 35,30 11,90 0,73 0 55,86
03/10/20 17,80 33,80 28,00 0,73 0 37,38
02/10/20 15,30 25,60 10,40 0,77 0 52,60
01/10/20 14,20 8,90 5,70 0,80 0 26,93
30/09/20 19,80 11,80 0,00 0,54 2 47,79
29/09/20 18,40 12,00 0,00 0,59 1 21,78
28/09/20 8,40 20,50 44,60 0,83 0 2,56
27/09/20 13,10 15,30 9,30 0,64 0 5,52
26/09/20 13,20 12,10 11,40 0,64 0 13,66
sucontract_SNC